Time;durP1;ratioP1;P1;durP2;ratioP2;P2;SDS_P1;SDS_P2;PMS_P1;PMS_P2;Temp;Humidity;BMP_temperature;BMP_pressure;BME280_temperature;BME280_humidity;BME280_pressure;Samples;Min_cycle;Max_cycle;Signal;HPM_P1;HPM_P2
2021/12/04 00:01:05;;;;;;;5.95;5.40;;;;;;;;;;12543768;28;20036;-74
2021/12/04 00:07:09;;;;;;;6.72;6.13;;;;;;;;;;12544791;28;20057;-74
2021/12/04 00:13:10;;;;;;;6.50;5.90;;;;;;;;;;12543184;28;20053;-73
2021/12/04 00:19:12;;;;;;;15.73;11.88;;;;;;;;;;12551833;28;20033;-73
2021/12/04 00:25:14;;;;;;;33.75;19.00;;;;;;;;;;12551172;28;20390;-73
2021/12/04 00:31:16;;;;;;;20.35;13.85;;;;;;;;;;12552051;28;20041;-73
2021/12/04 00:37:54;;;;;;;16.13;12.25;;;;;;;;;;12551867;28;20040;-73
2021/12/04 00:49:46;;;;;;;14.60;11.10;;;;;;;;;;12549878;28;20068;-73
2021/12/04 00:55:48;;;;;;;15.38;11.55;;;;;;;;;;12550898;28;20494;-73
2021/12/04 01:01:50;;;;;;;10.93;9.32;;;;;;;;;;12549270;28;20394;-73
2021/12/04 01:07:52;;;;;;;10.30;9.23;;;;;;;;;;12549656;28;20056;-73
2021/12/04 01:13:53;;;;;;;10.93;9.65;;;;;;;;;;12548710;28;20044;-73
2021/12/04 01:19:55;;;;;;;11.70;9.75;;;;;;;;;;12548192;28;20525;-73
2021/12/04 01:25:57;;;;;;;7.78;7.00;;;;;;;;;;12548355;28;20394;-74
2021/12/04 01:31:58;;;;;;;7.50;6.65;;;;;;;;;;12547780;28;20044;-73
2021/12/04 01:38:00;;;;;;;11.05;9.68;;;;;;;;;;12547709;28;20029;-72
2021/12/04 01:44:03;;;;;;;5.95;5.22;;;;;;;;;;12547531;28;20064;-73
2021/12/04 01:50:06;;;;;;;4.97;4.47;;;;;;;;;;12548066;28;20051;-73
2021/12/04 01:56:08;;;;;;;6.47;5.10;;;;;;;;;;12548137;28;20525;-73
2021/12/04 02:02:10;;;;;;;5.95;5.43;;;;;;;;;;12546029;28;20082;-73
2021/12/04 02:08:16;;;;;;;4.75;4.35;;;;;;;;;;12546447;28;20033;-73
2021/12/04 02:14:18;;;;;;;4.75;4.20;;;;;;;;;;12546789;28;20049;-73
2021/12/04 02:20:21;;;;;;;4.72;4.32;;;;;;;;;;12545965;28;20052;-74
2021/12/04 02:26:23;;;;;;;3.92;3.60;;;;;;;;;;12546731;28;20116;-73
2021/12/04 02:32:25;;;;;;;3.70;3.40;;;;;;;;;;12546171;28;20041;-73
2021/12/04 02:38:27;;;;;;;3.78;3.47;;;;;;;;;;12544895;28;20402;-74
2021/12/04 02:44:36;;;;;;;3.95;3.65;;;;;;;;;;12545939;28;20033;-74
2021/12/04 02:50:38;;;;;;;3.80;3.50;;;;;;;;;;12545539;28;20402;-73
2021/12/04 02:56:44;;;;;;;3.97;3.67;;;;;;;;;;12543747;28;20036;-73
2021/12/04 03:02:46;;;;;;;3.90;3.60;;;;;;;;;;12543337;28;20068;-73
2021/12/04 03:08:47;;;;;;;3.70;3.20;;;;;;;;;;12544687;28;20041;-74
2021/12/04 03:14:50;;;;;;;3.97;3.58;;;;;;;;;;12543551;28;20056;-74
2021/12/04 03:20:55;;;;;;;4.18;3.78;;;;;;;;;;12544032;28;20405;-74
2021/12/04 03:26:57;;;;;;;3.08;2.88;;;;;;;;;;12545068;28;20037;-74
2021/12/04 03:45:42;;;;;;;3.50;3.20;;;;;;;;;;12542652;28;20052;-74
2021/12/04 03:51:44;;;;;;;2.50;2.30;;;;;;;;;;12548449;28;20045;-74
2021/12/04 03:57:45;;;;;;;3.25;2.97;;;;;;;;;;12553948;28;20033;-74
2021/12/04 04:03:48;;;;;;;3.50;3.20;;;;;;;;;;12552025;28;20053;-74
2021/12/04 04:09:50;;;;;;;3.47;3.17;;;;;;;;;;12551611;28;20410;-74
2021/12/04 04:15:52;;;;;;;3.47;3.17;;;;;;;;;;12553426;28;20033;-74
2021/12/04 04:21:56;;;;;;;3.22;3.00;;;;;;;;;;12552478;28;20040;-73
2021/12/04 04:27:58;;;;;;;2.88;2.58;;;;;;;;;;12551060;28;20029;-74
2021/12/04 04:34:04;;;;;;;3.33;2.95;;;;;;;;;;12552303;28;20041;-74
2021/12/04 05:11:57;;;;;;;3.00;2.80;;;;;;;;;;12550111;28;20510;-74
2021/12/04 05:18:08;;;;;;;3.25;2.95;;;;;;;;;;12549674;28;20032;-75
2021/12/04 05:24:10;;;;;;;2.60;2.40;;;;;;;;;;12549840;28;20036;-75
2021/12/04 05:30:11;;;;;;;2.95;2.75;;;;;;;;;;12547888;28;20040;-74
2021/12/04 05:36:13;;;;;;;3.55;3.00;;;;;;;;;;12549720;28;20040;-75
2021/12/04 05:42:15;;;;;;;4.25;3.92;;;;;;;;;;12547671;28;20037;-75
2021/12/04 06:00:38;;;;;;;3.92;3.53;;;;;;;;;;12546841;28;20033;-74
2021/12/04 06:06:40;;;;;;;4.03;3.72;;;;;;;;;;12546601;28;20402;-74
2021/12/04 06:12:41;;;;;;;3.92;3.38;;;;;;;;;;12545623;28;20044;-74
2021/12/04 06:18:47;;;;;;;4.25;3.90;;;;;;;;;;12546060;28;20385;-74
2021/12/04 06:24:49;;;;;;;3.97;3.05;;;;;;;;;;12545542;28;20032;-74
2021/12/04 06:30:52;;;;;;;3.63;3.22;;;;;;;;;;12547183;28;20505;-74
2021/12/04 06:36:54;;;;;;;4.50;4.20;;;;;;;;;;12545362;28;20041;-74
2021/12/04 06:42:57;;;;;;;3.58;3.28;;;;;;;;;;12544721;28;20378;-74
2021/12/04 06:55:06;;;;;;;3.60;3.30;;;;;;;;;;12545083;28;20317;-74
2021/12/04 07:01:10;;;;;;;3.92;3.60;;;;;;;;;;12544854;28;20037;-74
2021/12/04 07:07:12;;;;;;;4.15;3.85;;;;;;;;;;12543635;28;20227;-74
2021/12/04 07:13:14;;;;;;;4.70;4.30;;;;;;;;;;12543481;28;20045;-74
2021/12/04 07:19:15;;;;;;;4.20;3.58;;;;;;;;;;12544323;28;20029;-74
2021/12/04 07:25:18;;;;;;;6.07;5.50;;;;;;;;;;12542594;28;20478;-74
2021/12/04 07:31:19;;;;;;;5.15;4.65;;;;;;;;;;12542644;28;20040;-74
2021/12/04 07:37:22;;;;;;;4.78;4.38;;;;;;;;;;12543335;28;20041;-74
2021/12/04 07:43:24;;;;;;;6.13;5.53;;;;;;;;;;12543837;28;20522;-74
2021/12/04 07:49:25;;;;;;;7.40;6.65;;;;;;;;;;12542608;28;20041;-73
2021/12/04 07:55:27;;;;;;;6.95;6.35;;;;;;;;;;12543283;28;20036;-73
2021/12/04 08:01:29;;;;;;;6.00;5.50;;;;;;;;;;12544910;28;20513;-73
2021/12/04 08:07:31;;;;;;;5.60;5.00;;;;;;;;;;12543622;28;20049;-73
2021/12/04 08:13:33;;;;;;;6.93;6.23;;;;;;;;;;12541812;28;20037;-74
2021/12/04 08:19:35;;;;;;;6.20;5.60;;;;;;;;;;12543152;28;20397;-73
2021/12/04 08:25:36;;;;;;;5.85;5.35;;;;;;;;;;12542831;28;20040;-73
2021/12/04 08:31:38;;;;;;;6.32;5.57;;;;;;;;;;12513184;28;20041;-73
2021/12/04 08:37:40;;;;;;;5.38;4.88;;;;;;;;;;12496974;28;20459;-74
2021/12/04 08:43:42;;;;;;;5.38;4.88;;;;;;;;;;12502033;28;20395;-74
2021/12/04 08:49:44;;;;;;;10.95;6.57;;;;;;;;;;12501576;28;20554;-73
2021/12/04 08:55:46;;;;;;;5.07;4.28;;;;;;;;;;12501299;28;20030;-73
2021/12/04 09:01:48;;;;;;;5.00;4.50;;;;;;;;;;12500318;28;20479;-73
2021/12/04 09:07:51;;;;;;;5.60;4.93;;;;;;;;;;12500457;28;20073;-73
2021/12/04 09:13:54;;;;;;;4.55;4.18;;;;;;;;;;12499124;28;20064;-73
2021/12/04 09:19:56;;;;;;;5.75;5.15;;;;;;;;;;12500337;28;20493;-73
2021/12/04 09:26:01;;;;;;;4.38;3.97;;;;;;;;;;12500020;28;20471;-74
2021/12/04 10:22:37;;;;;;;11.55;9.70;;;;;;;;;;12497348;28;20036;-74
2021/12/04 10:35:01;;;;;;;7.05;5.93;;;;;;;;;;12496055;28;20365;-74
2021/12/04 10:41:03;;;;;;;5.53;4.97;;;;;;;;;;12495279;28;20491;-74
2021/12/04 10:47:12;;;;;;;4.78;4.00;;;;;;;;;;12494935;28;20048;-74
2021/12/04 10:53:19;;;;;;;4.50;4.10;;;;;;;;;;12539256;28;20052;-74
2021/12/04 11:05:50;;;;;;;3.72;3.42;;;;;;;;;;12545326;28;20060;-74
2021/12/04 11:18:41;;;;;;;4.30;3.88;;;;;;;;;;12544412;28;20048;-74
2021/12/04 11:43:08;;;;;;;2.47;2.08;;;;;;;;;;12543711;28;20037;-74
2021/12/04 11:49:18;;;;;;;3.00;2.78;;;;;;;;;;12544307;28;20037;-75
2021/12/04 11:55:21;;;;;;;3.30;3.00;;;;;;;;;;12543334;28;20048;-73
2021/12/04 12:01:43;;;;;;;2.40;2.15;;;;;;;;;;12542676;28;20036;-73
2021/12/04 12:07:54;;;;;;;2.10;1.90;;;;;;;;;;12544509;28;20052;-73
2021/12/04 12:14:00;;;;;;;1.95;1.83;;;;;;;;;;12549739;28;20052;-73
2021/12/04 12:20:03;;;;;;;2.10;1.90;;;;;;;;;;12552606;28;20048;-73
2021/12/04 12:26:27;;;;;;;3.58;3.28;;;;;;;;;;12534238;28;20044;-73
2021/12/04 12:32:37;;;;;;;;;;;;;;;;;;12552549;28;20048;-73
2021/12/04 12:38:45;;;;;;;2.70;2.45;;;;;;;;;;12550284;28;19913;-73
2021/12/04 12:44:47;;;;;;;2.35;2.15;;;;;;;;;;12551615;28;20380;-73
2021/12/04 12:50:49;;;;;;;1.45;1.35;;;;;;;;;;12549916;28;20029;-74
2021/12/04 12:56:57;;;;;;;2.05;1.88;;;;;;;;;;12551022;28;20497;-73
2021/12/04 13:15:40;;;;;;;3.35;3.05;;;;;;;;;;12549960;28;20049;-75
2021/12/04 13:21:44;;;;;;;4.63;4.23;;;;;;;;;;12549030;28;20025;-74
2021/12/04 13:33:51;;;;;;;3.55;3.25;;;;;;;;;;12549393;28;20434;-74
2021/12/04 13:39:56;;;;;;;3.78;3.47;;;;;;;;;;12549554;28;20398;-73
2021/12/04 13:45:59;;;;;;;3.03;2.72;;;;;;;;;;12547515;28;20044;-73
2021/12/04 13:52:04;;;;;;;2.28;2.08;;;;;;;;;;12546885;28;20410;-73
2021/12/04 13:58:06;;;;;;;2.80;2.60;;;;;;;;;;12548128;28;20040;-74
2021/12/04 14:04:15;;;;;;;1.67;1.57;;;;;;;;;;12546530;28;20057;-73
2021/12/04 14:10:19;;;;;;;3.17;2.63;;;;;;;;;;12546266;28;20049;-74
2021/12/04 14:16:20;;;;;;;;;;;;;;;;;;12547692;28;20374;-74
2021/12/04 14:22:22;;;;;;;2.10;2.00;;;;;;;;;;12547099;28;19916;-74
2021/12/04 14:28:27;;;;;;;2.22;2.03;;;;;;;;;;12545081;28;20028;-73
2021/12/04 14:34:30;;;;;;;2.67;2.47;;;;;;;;;;12545215;28;20052;-74
2021/12/04 14:40:34;;;;;;;2.80;2.50;;;;;;;;;;12544629;28;20037;-75
2021/12/04 14:46:36;;;;;;;1.75;1.65;;;;;;;;;;12544962;28;20037;-73
2021/12/04 14:52:38;;;;;;;2.10;2.00;;;;;;;;;;12545438;28;20039;-73
2021/12/04 14:58:40;;;;;;;2.40;2.20;;;;;;;;;;12545318;28;20040;-73
2021/12/04 15:04:42;;;;;;;2.93;2.63;;;;;;;;;;12543810;28;20059;-73
2021/12/04 15:10:47;;;;;;;2.73;2.53;;;;;;;;;;12545523;28;20056;-74
2021/12/04 15:16:52;;;;;;;2.90;2.60;;;;;;;;;;12543453;28;20036;-75
2021/12/04 15:22:58;;;;;;;2.67;2.47;;;;;;;;;;12544398;28;20041;-75
2021/12/04 15:28:59;;;;;;;4.03;3.63;;;;;;;;;;12543255;28;20474;-74
2021/12/04 15:35:15;;;;;;;3.90;3.60;;;;;;;;;;12543439;28;20059;-74
2021/12/04 15:41:31;;;;;;;4.13;3.00;;;;;;;;;;12543736;28;20041;-74
2021/12/04 15:47:48;;;;;;;4.60;4.20;;;;;;;;;;12548496;28;20052;-74
2021/12/04 15:53:55;;;;;;;5.97;5.45;;;;;;;;;;12553907;28;20048;-74
2021/12/04 15:59:58;;;;;;;6.97;6.35;;;;;;;;;;12553336;28;20029;-74
2021/12/04 16:06:09;;;;;;;7.07;6.05;;;;;;;;;;12535809;28;20060;-74
2021/12/04 16:12:12;;;;;;;6.63;5.82;;;;;;;;;;12552840;28;20048;-74
2021/12/04 16:18:16;;;;;;;7.93;7.05;;;;;;;;;;12552950;28;20410;-74
2021/12/04 16:24:17;;;;;;;8.07;7.28;;;;;;;;;;12552570;28;20029;-73
2021/12/04 16:36:36;;;;;;;8.70;7.85;;;;;;;;;;12552071;28;20039;-73
2021/12/04 16:42:38;;;;;;;9.50;8.50;;;;;;;;;;12551507;28;20029;-73
2021/12/04 16:48:47;;;;;;;8.33;7.57;;;;;;;;;;12550326;28;20068;-74
2021/12/04 16:55:22;;;;;;;6.80;6.10;;;;;;;;;;12551274;28;20049;-75
2021/12/04 17:01:24;;;;;;;7.10;6.40;;;;;;;;;;12550597;28;20044;-74
2021/12/04 17:07:26;;;;;;;7.00;5.65;;;;;;;;;;12551174;28;20053;-74
2021/12/04 17:13:28;;;;;;;10.57;8.98;;;;;;;;;;12550158;28;20063;-74
2021/12/04 17:19:29;;;;;;;9.90;7.80;;;;;;;;;;12548926;28;20039;-74
2021/12/04 17:25:33;;;;;;;8.02;7.15;;;;;;;;;;12548810;28;20041;-74
2021/12/04 17:31:35;;;;;;;11.02;8.75;;;;;;;;;;12548488;28;20048;-74
2021/12/04 17:37:37;;;;;;;9.47;8.43;;;;;;;;;;12550109;28;20042;-74
2021/12/04 17:43:39;;;;;;;7.10;6.40;;;;;;;;;;12531292;28;20041;-74
2021/12/04 17:49:41;;;;;;;7.70;6.93;;;;;;;;;;12547358;28;20039;-74
2021/12/04 17:55:43;;;;;;;7.00;6.30;;;;;;;;;;12548453;28;20037;-74
2021/12/04 18:01:52;;;;;;;4.88;4.45;;;;;;;;;;12548118;28;20040;-73
2021/12/04 18:07:55;;;;;;;6.22;5.47;;;;;;;;;;12546282;28;20245;-73
2021/12/04 18:13:59;;;;;;;5.32;4.85;;;;;;;;;;12546122;28;20048;-73
2021/12/04 18:20:01;;;;;;;6.65;6.05;;;;;;;;;;12547105;28;20032;-73
2021/12/04 18:26:05;;;;;;;7.53;6.75;;;;;;;;;;12545683;28;20041;-73
2021/12/04 18:32:07;;;;;;;6.05;5.45;;;;;;;;;;12545675;28;20454;-73
2021/12/04 18:38:09;;;;;;;9.77;7.83;;;;;;;;;;12546436;28;20048;-73
2021/12/04 18:44:13;;;;;;;9.90;9.00;;;;;;;;;;12546068;28;20033;-73
2021/12/04 18:50:16;;;;;;;9.27;8.35;;;;;;;;;;12527921;28;20029;-74
2021/12/04 18:56:18;;;;;;;7.15;6.38;;;;;;;;;;12544267;28;20520;-73
2021/12/04 19:02:23;;;;;;;8.32;7.53;;;;;;;;;;12544887;28;20040;-74
2021/12/04 19:08:24;;;;;;;8.82;8.02;;;;;;;;;;12526978;28;20044;-74
2021/12/04 19:14:26;;;;;;;8.50;7.70;;;;;;;;;;12526959;28;20051;-73
2021/12/04 19:20:28;;;;;;;7.88;7.18;;;;;;;;;;12543866;28;20501;-74
2021/12/04 19:26:30;;;;;;;8.88;8.00;;;;;;;;;;12544331;28;20040;-73
2021/12/04 19:32:34;;;;;;;12.00;9.30;;;;;;;;;;12544032;28;20044;-74
2021/12/04 19:51:16;;;;;;;12.73;10.18;;;;;;;;;;12542542;28;20064;-74
2021/12/04 19:57:22;;;;;;;13.80;10.82;;;;;;;;;;12542563;28;20028;-73
2021/12/04 20:03:37;;;;;;;19.50;13.98;;;;;;;;;;12543634;28;20060;-74
2021/12/04 20:16:24;;;;;;;22.35;17.75;;;;;;;;;;12543390;28;20476;-73
2021/12/04 20:22:27;;;;;;;29.15;23.80;;;;;;;;;;12542563;28;20063;-73
2021/12/04 20:29:23;;;;;;;21.17;18.08;;;;;;;;;;12543063;28;20470;-73
2021/12/04 21:50:49;;;;;;;6.75;6.05;;;;;;;;;;12548389;28;20056;-73
2021/12/04 22:09:18;;;;;;;4.72;4.32;;;;;;;;;;12547782;28;20041;-73
2021/12/04 22:59:25;;;;;;;4.63;3.58;;;;;;;;;;12545535;28;20029;-74
